Time;durP1;ratioP1;P1;durP2;ratioP2;P2;SDS_P1;SDS_P2;PMS_P1;PMS_P2;Temp;Humidity;BMP_temperature;BMP_pressure;BME280_temperature;BME280_humidity;BME280_pressure;Samples;Min_cycle;Max_cycle;Signal;HPM_P1;HPM_P2
2021/08/12 00:00:32;;;;;;;0.50;0.30;;;17.80;99.90;;;;;;5081882;28;20447;-83
2021/08/12 00:02:59;;;;;;;0.50;0.40;;;17.80;99.90;;;;;;5084416;28;20810;-83
2021/08/12 00:05:25;;;;;;;0.50;0.40;;;17.80;99.90;;;;;;5082959;28;20441;-82
2021/08/12 00:07:52;;;;;;;0.50;0.30;;;17.80;99.90;;;;;;5078199;28;20461;-85
2021/08/12 00:10:20;;;;;;;0.50;0.30;;;17.70;99.90;;;;;;5075466;28;20437;-84
2021/08/12 00:12:47;;;;;;;0.50;0.40;;;17.60;99.90;;;;;;5076136;28;20439;-83
2021/08/12 00:15:14;;;;;;;0.50;0.30;;;17.60;99.90;;;;;;5076337;28;20451;-85
2021/08/12 00:17:41;;;;;;;0.50;0.40;;;17.60;99.90;;;;;;5076224;28;20477;-84
2021/08/12 00:20:09;;;;;;;0.50;0.30;;;17.60;99.90;;;;;;5074715;28;20445;-81
2021/08/12 00:22:35;;;;;;;0.50;0.40;;;17.60;99.90;;;;;;5076861;28;20442;-84
2021/08/12 00:25:02;;;;;;;0.50;0.30;;;17.60;99.90;;;;;;5076722;28;20465;-84
2021/08/12 00:27:30;;;;;;;0.50;0.30;;;17.60;99.90;;;;;;5076482;28;20472;-84
2021/08/12 00:29:57;;;;;;;0.50;0.30;;;17.60;99.90;;;;;;5076402;28;20943;-85
2021/08/12 00:32:24;;;;;;;0.50;0.30;;;17.50;99.90;;;;;;5075552;28;20472;-84
2021/08/12 00:34:50;;;;;;;0.50;0.30;;;17.40;99.90;;;;;;5077367;28;20442;-84
2021/08/12 00:37:18;;;;;;;0.50;0.40;;;17.40;99.90;;;;;;5076363;28;20467;-84
2021/08/12 00:39:44;;;;;;;0.50;0.40;;;17.30;99.90;;;;;;5076737;28;20452;-84
2021/08/12 00:42:12;;;;;;;0.50;0.30;;;17.30;99.90;;;;;;5076283;28;20428;-84
2021/08/12 00:44:40;;;;;;;0.50;0.40;;;17.30;99.90;;;;;;5076965;28;20456;-84
2021/08/12 00:47:06;;;;;;;0.50;0.30;;;17.30;99.90;;;;;;5076579;28;20840;-81
2021/08/12 00:49:37;;;;;;;0.50;0.40;;;17.30;99.90;;;;;;5076713;28;20445;-84
2021/08/12 00:52:05;;;;;;;0.50;0.30;;;17.30;99.90;;;;;;5076032;28;20456;-84
2021/08/12 00:54:34;;;;;;;0.50;0.30;;;17.20;99.90;;;;;;5076510;28;20441;-84
2021/08/12 00:57:02;;;;;;;0.50;0.30;;;17.20;99.90;;;;;;5076063;28;20989;-84
2021/08/12 00:59:34;;;;;;;0.50;0.30;;;17.30;99.90;;;;;;5075997;28;20945;-84
2021/08/12 01:02:03;;;;;;;0.50;0.30;;;17.30;99.90;;;;;;5075556;28;20417;-85
2021/08/12 01:04:30;;;;;;;0.50;0.30;;;17.30;99.90;;;;;;5076853;28;20447;-84
2021/08/12 01:07:02;;;;;;;0.50;0.40;;;17.30;99.90;;;;;;5077146;28;20475;-84
2021/08/12 01:09:33;;;;;;;0.50;0.30;;;17.30;99.90;;;;;;5076984;28;20463;-84
2021/08/12 01:12:07;;;;;;;0.50;0.30;;;17.40;99.90;;;;;;5075663;28;20476;-84
2021/08/12 01:14:41;;;;;;;0.50;0.33;;;17.40;99.90;;;;;;5076569;28;20786;-84
2021/08/12 01:17:15;;;;;;;0.50;0.30;;;17.40;99.90;;;;;;5075855;28;20471;-85
2021/08/12 01:20:17;;;;;;;0.50;0.30;;;17.50;99.90;;;;;;5075909;28;20428;-84
2021/08/12 01:22:48;;;;;;;0.50;0.30;;;17.50;99.90;;;;;;5075854;28;20456;-83
2021/08/12 01:25:21;;;;;;;0.50;0.30;;;17.50;99.90;;;;;;5076202;28;20437;-84
2021/08/12 01:27:51;;;;;;;0.50;0.37;;;17.50;99.90;;;;;;5076399;28;20461;-84
2021/08/12 01:30:23;;;;;;;0.50;0.30;;;17.40;99.90;;;;;;5076439;28;20440;-84
2021/08/12 01:32:59;;;;;;;0.50;0.30;;;17.40;99.90;;;;;;5079778;28;20463;-85
2021/08/12 01:35:30;;;;;;;0.50;0.30;;;17.40;99.90;;;;;;5079593;28;20451;-84
2021/08/12 01:38:02;;;;;;;0.50;0.30;;;17.40;99.90;;;;;;5080050;28;20463;-84
2021/08/12 01:40:31;;;;;;;0.50;0.30;;;17.40;99.90;;;;;;5079353;28;20931;-84
2021/08/12 01:43:00;;;;;;;0.50;0.30;;;17.40;99.90;;;;;;5079734;28;20438;-84
2021/08/12 01:45:29;;;;;;;0.50;0.30;;;17.40;99.90;;;;;;5080417;28;20453;-84
2021/08/12 01:47:58;;;;;;;0.50;0.30;;;17.30;99.90;;;;;;5078010;28;20461;-84
2021/08/12 01:50:27;;;;;;;0.50;0.30;;;17.30;99.90;;;;;;5078037;28;20448;-83
2021/08/12 01:52:56;;;;;;;0.50;0.30;;;17.20;99.90;;;;;;5078774;28;20472;-85
2021/08/12 01:55:28;;;;;;;0.50;0.30;;;17.20;99.90;;;;;;5077673;28;20446;-84
2021/08/12 01:57:55;;;;;;;0.50;0.30;;;17.10;99.90;;;;;;5078615;28;20522;-83
2021/08/12 02:00:22;;;;;;;0.50;0.30;;;17.10;99.90;;;;;;5078303;28;20437;-84
2021/08/12 02:02:51;;;;;;;0.50;0.30;;;17.10;99.90;;;;;;5078152;28;20429;-84
2021/08/12 02:05:18;;;;;;;0.50;0.30;;;17.20;99.90;;;;;;5078486;28;20449;-80
2021/08/12 02:07:48;;;;;;;0.50;0.30;;;17.10;99.90;;;;;;5078020;28;20461;-83
2021/08/12 02:10:16;;;;;;;0.50;0.30;;;17.10;99.90;;;;;;5077581;28;20448;-84
2021/08/12 02:12:43;;;;;;;0.50;0.30;;;17.00;99.90;;;;;;5078507;28;20485;-83
2021/08/12 02:15:12;;;;;;;0.50;0.30;;;17.00;99.90;;;;;;5077776;28;20444;-84
2021/08/12 02:17:39;;;;;;;0.50;0.30;;;16.90;99.90;;;;;;5138840;22;20839;-83
2021/08/12 02:20:08;;;;;;;0.50;0.30;;;16.90;99.90;;;;;;5103274;28;20443;-84
2021/08/12 02:22:39;;;;;;;0.50;0.40;;;16.80;99.90;;;;;;5112365;28;20441;-86
2021/08/12 02:25:12;;;;;;;0.50;0.30;;;16.80;99.90;;;;;;5118544;28;20422;-85
2021/08/12 02:27:43;;;;;;;0.50;0.40;;;16.80;99.90;;;;;;5117557;28;20459;-85
2021/08/12 02:30:11;;;;;;;0.50;0.40;;;16.70;99.90;;;;;;5118676;28;20483;-85
2021/08/12 02:32:39;;;;;;;0.50;0.30;;;16.70;99.90;;;;;;5118396;28;20470;-86
2021/08/12 02:35:10;;;;;;;0.50;0.37;;;16.70;99.90;;;;;;5119232;28;20435;-83
2021/08/12 02:37:38;;;;;;;0.50;0.30;;;16.60;99.90;;;;;;5118747;28;20963;-83
2021/08/12 02:40:08;;;;;;;0.50;0.30;;;16.60;99.90;;;;;;5118691;28;20446;-85
2021/08/12 02:42:38;;;;;;;0.50;0.30;;;16.70;99.90;;;;;;5117620;28;20438;-84
2021/08/12 02:45:06;;;;;;;0.50;0.30;;;16.70;99.90;;;;;;5119285;28;20435;-82
2021/08/12 02:47:34;;;;;;;0.50;0.30;;;16.60;99.90;;;;;;5117958;28;20455;-85
2021/08/12 02:50:03;;;;;;;0.50;0.40;;;16.60;99.90;;;;;;5119116;28;20439;-86
2021/08/12 02:52:31;;;;;;;0.50;0.30;;;16.60;99.90;;;;;;5118313;28;20468;-85
2021/08/12 02:54:58;;;;;;;0.50;0.40;;;16.70;99.90;;;;;;5117164;28;20439;-85
2021/08/12 02:57:26;;;;;;;0.50;0.30;;;16.70;99.90;;;;;;5117829;28;20451;-84
2021/08/12 02:59:54;;;;;;;0.50;0.30;;;16.70;99.90;;;;;;5118658;28;20776;-85
2021/08/12 03:02:22;;;;;;;0.50;0.30;;;16.70;99.90;;;;;;5117628;28;20438;-86
2021/08/12 03:04:49;;;;;;;0.50;0.30;;;16.70;99.90;;;;;;5117880;28;20466;-83
2021/08/12 03:07:18;;;;;;;0.50;0.30;;;16.60;99.90;;;;;;5117564;28;20459;-84
2021/08/12 03:09:48;;;;;;;0.50;0.30;;;16.60;99.90;;;;;;5117894;28;20447;-84
2021/08/12 03:12:16;;;;;;;0.50;0.40;;;16.70;99.90;;;;;;5117393;28;20481;-86
2021/08/12 03:14:44;;;;;;;0.50;0.30;;;16.70;99.90;;;;;;5117778;28;20442;-86
2021/08/12 03:17:12;;;;;;;0.50;0.30;;;16.70;99.90;;;;;;5117378;28;20439;-84
2021/08/12 03:19:40;;;;;;;0.50;0.30;;;16.70;99.90;;;;;;5117552;28;20434;-85
2021/08/12 03:22:09;;;;;;;0.50;0.30;;;16.70;99.90;;;;;;5117085;28;20790;-84
2021/08/12 03:24:37;;;;;;;0.50;0.30;;;16.70;99.90;;;;;;5116956;28;20451;-83
2021/08/12 03:27:04;;;;;;;0.50;0.33;;;16.70;99.90;;;;;;5118090;28;20458;-86
2021/08/12 03:29:31;;;;;;;0.50;0.30;;;16.70;99.90;;;;;;5117018;28;20431;-86
2021/08/12 03:31:59;;;;;;;1.43;1.37;;;16.70;99.90;;;;;;5117274;28;20497;-86
2021/08/12 03:34:26;;;;;;;0.50;0.40;;;16.80;99.90;;;;;;5118587;28;20440;-86
2021/08/12 03:36:53;;;;;;;0.50;0.40;;;16.80;99.90;;;;;;5117350;28;20457;-82
2021/08/12 03:39:21;;;;;;;0.50;0.40;;;16.80;99.90;;;;;;5119027;28;20907;-80
2021/08/12 03:41:48;;;;;;;0.50;0.40;;;16.70;99.90;;;;;;5122335;28;20435;-84
2021/08/12 03:44:14;;;;;;;0.50;0.30;;;16.70;99.90;;;;;;5119673;28;20443;-86
2021/08/12 03:46:41;;;;;;;0.50;0.40;;;16.70;99.90;;;;;;5118680;28;20534;-85
2021/08/12 03:49:09;;;;;;;0.50;0.40;;;16.60;99.90;;;;;;5117088;28;20455;-84
2021/08/12 03:51:37;;;;;;;0.50;0.40;;;16.50;99.90;;;;;;5117707;28;20435;-84
2021/08/12 03:54:04;;;;;;;0.50;0.40;;;16.50;99.90;;;;;;5117587;28;20438;-87
2021/08/12 03:56:30;;;;;;;0.50;0.40;;;16.40;99.90;;;;;;5118036;28;20435;-85
2021/08/12 03:58:57;;;;;;;0.50;0.40;;;16.40;99.90;;;;;;5118258;28;20466;-84
2021/08/12 04:01:24;;;;;;;0.50;0.37;;;16.40;99.90;;;;;;5117136;28;20434;-86
2021/08/12 04:03:51;;;;;;;0.50;0.30;;;16.30;99.90;;;;;;5119083;28;20429;-85
2021/08/12 04:06:19;;;;;;;0.50;0.37;;;16.30;99.90;;;;;;5118629;28;20442;-86
2021/08/12 04:08:46;;;;;;;0.50;0.40;;;16.30;99.90;;;;;;5117944;28;20636;-86
2021/08/12 04:11:12;;;;;;;0.50;0.30;;;16.30;99.90;;;;;;5118512;28;20450;-86
2021/08/12 04:13:39;;;;;;;0.50;0.30;;;16.30;99.90;;;;;;5119296;28;20474;-86
2021/08/12 04:16:06;;;;;;;0.50;0.30;;;16.30;99.90;;;;;;5119042;28;20804;-83
2021/08/12 04:18:34;;;;;;;0.50;0.30;;;16.30;99.90;;;;;;5118342;28;20470;-85
2021/08/12 04:21:00;;;;;;;0.50;0.40;;;16.30;99.90;;;;;;5118059;28;20444;-83
2021/08/12 04:23:28;;;;;;;0.50;0.40;;;16.30;99.90;;;;;;5117406;28;20439;-86
2021/08/12 04:25:56;;;;;;;0.50;0.30;;;16.40;99.90;;;;;;5118045;28;20435;-86
2021/08/12 04:28:23;;;;;;;0.50;0.30;;;16.40;99.90;;;;;;5116531;28;20446;-86
2021/08/12 04:30:49;;;;;;;0.50;0.40;;;16.50;99.90;;;;;;5117846;28;20438;-86
2021/08/12 04:33:17;;;;;;;0.50;0.40;;;16.60;99.90;;;;;;5118331;28;20471;-86
2021/08/12 04:35:44;;;;;;;0.50;0.30;;;16.60;99.90;;;;;;5117299;28;20441;-86
2021/08/12 04:38:11;;;;;;;0.50;0.40;;;16.70;99.90;;;;;;5117863;28;20462;-87
2021/08/12 04:40:39;;;;;;;0.50;0.40;;;16.70;99.90;;;;;;5118304;28;20446;-86
2021/08/12 04:43:06;;;;;;;1.00;1.00;;;16.70;99.90;;;;;;5117336;28;20521;-85
2021/08/12 04:45:34;;;;;;;0.50;0.30;;;16.70;99.90;;;;;;5117528;28;20454;-86
2021/08/12 04:48:02;;;;;;;0.50;0.30;;;16.80;99.90;;;;;;5117886;28;20450;-86
2021/08/12 04:50:28;;;;;;;15.73;3.50;;;16.90;99.90;;;;;;5118526;28;20444;-87
2021/08/12 04:52:55;;;;;;;0.50;0.30;;;16.90;99.90;;;;;;5121855;28;20481;-87
2021/08/12 04:55:22;;;;;;;0.70;0.70;;;17.00;99.90;;;;;;5120274;28;20426;-86
2021/08/12 04:57:50;;;;;;;0.50;0.40;;;17.10;99.90;;;;;;5120146;28;20455;-87
2021/08/12 05:00:17;;;;;;;0.80;0.80;;;17.20;99.90;;;;;;5120080;28;20439;-87
2021/08/12 05:02:44;;;;;;;0.73;0.73;;;17.30;99.90;;;;;;5120658;28;20431;-87
2021/08/12 05:05:12;;;;;;;0.50;0.40;;;17.30;99.90;;;;;;5120594;28;20439;-86
2021/08/12 05:07:38;;;;;;;1.13;0.83;;;17.30;99.90;;;;;;5124239;28;20451;-87
2021/08/12 05:10:06;;;;;;;0.50;0.40;;;17.40;99.90;;;;;;5124581;28;20468;-86
2021/08/12 05:12:33;;;;;;;1.13;0.90;;;17.40;99.90;;;;;;5124268;28;20475;-87
2021/08/12 05:15:02;;;;;;;2.20;2.10;;;17.40;99.90;;;;;;5125055;28;20800;-86
2021/08/12 05:17:29;;;;;;;1.10;1.10;;;17.50;99.90;;;;;;5124260;28;20475;-86
2021/08/12 05:19:55;;;;;;;0.60;0.40;;;17.60;99.90;;;;;;5123391;28;20458;-86
2021/08/12 05:22:23;;;;;;;0.50;0.40;;;17.70;99.90;;;;;;5123077;28;20932;-87
2021/08/12 05:24:50;;;;;;;1.47;1.40;;;17.70;99.90;;;;;;5123597;28;20436;-85
2021/08/12 05:27:17;;;;;;;0.50;0.47;;;17.70;99.90;;;;;;5123096;28;20464;-85
2021/08/12 05:29:44;;;;;;;1.17;1.07;;;17.70;99.90;;;;;;5122350;28;20454;-86
2021/08/12 05:32:12;;;;;;;0.50;0.30;;;17.70;99.90;;;;;;5123371;28;20439;-87
2021/08/12 05:34:39;;;;;;;0.50;0.30;;;17.70;99.90;;;;;;5124076;28;20945;-86
2021/08/12 05:37:06;;;;;;;0.50;0.30;;;17.80;99.90;;;;;;5123482;28;20445;-87
2021/08/12 05:39:33;;;;;;;0.50;0.30;;;17.90;99.90;;;;;;5123552;28;20435;-85
2021/08/12 05:41:59;;;;;;;0.50;0.50;;;18.20;99.90;;;;;;5123394;28;20458;-86
2021/08/12 05:44:26;;;;;;;0.70;0.70;;;18.40;99.90;;;;;;5113650;28;20463;-87
2021/08/12 05:46:53;;;;;;;0.50;0.30;;;18.50;99.90;;;;;;5118823;28;20451;-86
2021/08/12 05:49:23;;;;;;;0.50;0.30;;;18.70;99.90;;;;;;5120769;28;20460;-85
2021/08/12 05:51:50;;;;;;;0.50;0.40;;;18.80;99.90;;;;;;5102338;28;20511;-85
2021/08/12 05:54:17;;;;;;;0.50;0.40;;;19.00;99.90;;;;;;5121606;28;20475;-87
2021/08/12 05:56:44;;;;;;;0.50;0.30;;;19.10;99.90;;;;;;5123018;28;20435;-86
2021/08/12 05:59:10;;;;;;;0.50;0.40;;;19.10;99.90;;;;;;5123063;28;20554;-86
2021/08/12 06:01:37;;;;;;;0.50;0.40;;;19.20;99.90;;;;;;5123286;28;20972;-86
2021/08/12 06:04:04;;;;;;;0.90;0.90;;;19.20;99.90;;;;;;5114264;28;20440;-87
2021/08/12 06:06:32;;;;;;;2.37;2.23;;;19.40;99.90;;;;;;5107260;28;20441;-87
2021/08/12 06:08:59;;;;;;;0.50;0.30;;;20.30;99.90;;;;;;5102745;28;20463;-86
2021/08/12 06:11:26;;;;;;;3.60;0.70;;;21.80;99.90;;;;;;5101460;28;20462;-85
2021/08/12 06:13:53;;;;;;;0.77;0.47;;;23.30;99.90;;;;;;5102180;28;20846;-86
2021/08/12 06:16:20;;;;;;;0.87;0.83;;;24.30;99.90;;;;;;5100425;28;20436;-86
2021/08/12 06:18:46;;;;;;;0.50;0.30;;;25.10;99.90;;;;;;5100194;28;20475;-86
2021/08/12 06:21:14;;;;;;;0.50;0.30;;;25.60;99.90;;;;;;5099670;28;20433;-86
2021/08/12 06:23:42;;;;;;;0.60;0.60;;;26.50;99.90;;;;;;5099977;28;20489;-86
2021/08/12 06:26:09;;;;;;;0.50;0.30;;;27.10;99.90;;;;;;5099579;28;20448;-86
2021/08/12 06:28:36;;;;;;;0.60;0.50;;;27.00;99.90;;;;;;5098609;28;20467;-86
2021/08/12 06:31:03;;;;;;;0.50;0.30;;;27.70;99.90;;;;;;5098458;28;20443;-86
2021/08/12 06:33:29;;;;;;;2.73;2.50;;;27.60;99.90;;;;;;5098722;28;21117;-87
2021/08/12 06:35:56;;;;;;;1.30;1.30;;;27.80;99.90;;;;;;5099777;28;20809;-86
2021/08/12 06:38:23;;;;;;;2.07;1.97;;;27.00;99.90;;;;;;5099416;28;20459;-86
2021/08/12 06:40:51;;;;;;;0.50;0.40;;;27.00;99.90;;;;;;5099726;28;20441;-86
2021/08/12 06:43:18;;;;;;;0.50;0.30;;;27.50;99.90;;;;;;5100182;28;20445;-86
2021/08/12 06:45:45;;;;;;;0.50;0.40;;;28.20;99.90;;;;;;5099939;28;20451;-87
2021/08/12 06:48:12;;;;;;;1.00;1.00;;;27.90;99.90;;;;;;5099469;28;20969;-85
2021/08/12 06:50:39;;;;;;;0.70;0.70;;;28.40;99.90;;;;;;5101765;28;20437;-87
2021/08/12 06:53:06;;;;;;;0.50;0.30;;;28.90;99.90;;;;;;5098919;28;20469;-83
2021/08/12 06:55:34;;;;;;;0.50;0.47;;;30.00;99.90;;;;;;5097311;28;20453;-86
2021/08/12 06:58:02;;;;;;;3.40;3.17;;;30.90;99.90;;;;;;5095791;28;20983;-85
2021/08/12 07:00:29;;;;;;;2.10;2.00;;;30.90;99.90;;;;;;5095715;28;20439;-86
2021/08/12 07:02:56;;;;;;;0.50;0.30;;;30.60;99.60;;;;;;5096169;28;20436;-85
2021/08/12 07:05:23;;;;;;;0.43;0.30;;;31.10;99.60;;;;;;5096008;28;20432;-85
2021/08/12 07:07:50;;;;;;;0.50;0.30;;;32.50;96.60;;;;;;5096692;28;20467;-86
2021/08/12 07:10:16;;;;;;;0.47;0.30;;;34.00;88.10;;;;;;5096164;28;20445;-84
2021/08/12 07:12:43;;;;;;;0.47;0.30;;;34.10;81.30;;;;;;5096456;28;20508;-85
2021/08/12 07:15:12;;;;;;;0.40;0.30;;;34.00;79.70;;;;;;5097386;28;20449;-85
2021/08/12 07:17:39;;;;;;;1.97;1.93;;;33.90;79.90;;;;;;5095575;28;20473;-85
2021/08/12 07:20:06;;;;;;;0.43;0.30;;;34.40;76.60;;;;;;5096906;28;20442;-84
2021/08/12 07:22:33;;;;;;;0.50;0.40;;;34.20;76.10;;;;;;5096476;28;20450;-86
2021/08/12 07:25:00;;;;;;;0.50;0.40;;;33.70;75.40;;;;;;5098021;28;20477;-85
2021/08/12 07:27:27;;;;;;;0.93;0.93;;;32.90;78.70;;;;;;5099553;28;20464;-84
2021/08/12 07:29:54;;;;;;;0.50;0.30;;;33.10;79.10;;;;;;5099265;28;20943;-85
2021/08/12 07:32:22;;;;;;;0.50;0.30;;;33.50;78.20;;;;;;5103164;28;20452;-86
2021/08/12 07:34:49;;;;;;;0.73;0.67;;;34.50;80.00;;;;;;5117230;28;20460;-83
2021/08/12 07:37:15;;;;;;;0.40;0.30;;;35.70;72.40;;;;;;5115806;28;20473;-85
2021/08/12 07:39:42;;;;;;;0.40;0.30;;;36.20;70.00;;;;;;5116036;28;20445;-85
2021/08/12 07:42:09;;;;;;;0.40;0.30;;;36.50;68.10;;;;;;5106000;28;20900;-85
2021/08/12 07:44:36;;;;;;;0.53;0.53;;;36.90;65.50;;;;;;5095839;28;20446;-86
2021/08/12 07:47:03;;;;;;;0.43;0.30;;;36.90;63.80;;;;;;5096005;28;20958;-86
2021/08/12 07:49:31;;;;;;;0.60;0.60;;;36.90;66.40;;;;;;5095487;28;20444;-85
2021/08/12 07:51:57;;;;;;;0.40;0.30;;;37.60;61.90;;;;;;5095245;28;20933;-84
2021/08/12 07:54:24;;;;;;;0.40;0.30;;;38.10;62.70;;;;;;5095569;28;20525;-87
2021/08/12 07:56:52;;;;;;;0.40;0.30;;;38.80;59.90;;;;;;5094979;28;20444;-82
2021/08/12 07:59:19;;;;;;;0.40;0.30;;;38.60;57.60;;;;;;5095328;28;20493;-85
2021/08/12 08:01:45;;;;;;;0.40;0.30;;;38.20;58.10;;;;;;5095207;28;20445;-84
2021/08/12 08:04:12;;;;;;;0.40;0.30;;;38.10;58.50;;;;;;5095455;28;20522;-84
2021/08/12 08:06:40;;;;;;;0.40;0.30;;;38.30;58.00;;;;;;5095643;28;20442;-85
2021/08/12 08:09:07;;;;;;;0.40;0.40;;;38.70;57.60;;;;;;5095203;28;20461;-85
2021/08/12 08:11:34;;;;;;;0.40;0.30;;;39.20;56.60;;;;;;5094525;28;20443;-85
2021/08/12 08:14:00;;;;;;;0.40;0.30;;;39.00;56.20;;;;;;5094772;28;20481;-85
2021/08/12 08:16:28;;;;;;;0.40;0.30;;;39.20;56.50;;;;;;5098515;28;20457;-85
2021/08/12 08:18:55;;;;;;;0.40;0.30;;;39.10;56.70;;;;;;5097733;28;20559;-85
2021/08/12 08:21:22;;;;;;;0.40;0.30;;;39.50;55.70;;;;;;5094308;28;20434;-84
2021/08/12 08:23:50;;;;;;;0.40;0.30;;;39.50;55.20;;;;;;5094053;28;20785;-86
2021/08/12 08:26:17;;;;;;;0.40;0.30;;;39.90;55.20;;;;;;5094250;28;20438;-85
2021/08/12 08:28:44;;;;;;;0.47;0.47;;;39.70;53.70;;;;;;5094494;28;21010;-83
2021/08/12 08:31:11;;;;;;;0.40;0.30;;;38.40;55.50;;;;;;5094649;28;20445;-84
2021/08/12 08:33:38;;;;;;;0.63;0.60;;;38.70;56.50;;;;;;5094434;28;20991;-83
2021/08/12 08:36:05;;;;;;;0.87;0.83;;;39.20;54.60;;;;;;5094910;28;20819;-86
2021/08/12 08:38:32;;;;;;;0.40;0.30;;;38.40;54.80;;;;;;5094784;28;20491;-85
2021/08/12 08:41:02;;;;;;;0.40;0.30;;;38.00;56.50;;;;;;5093293;28;20438;-86
2021/08/12 08:43:31;;;;;;;0.40;0.30;;;38.60;54.90;;;;;;5094481;28;21077;-86
2021/08/12 08:45:59;;;;;;;0.50;0.50;;;38.70;55.40;;;;;;5093588;28;20497;-85
2021/08/12 08:48:27;;;;;;;1.13;1.13;;;39.10;55.50;;;;;;5093564;28;20459;-84
2021/08/12 08:50:54;;;;;;;1.10;1.00;;;39.60;53.10;;;;;;5094061;28;20439;-86
2021/08/12 08:53:22;;;;;;;0.40;0.40;;;39.50;52.60;;;;;;5094948;28;20453;-86
2021/08/12 08:55:51;;;;;;;0.40;0.30;;;38.10;52.90;;;;;;5094358;28;20448;-86
2021/08/12 08:58:20;;;;;;;0.40;0.30;;;38.40;54.10;;;;;;5094958;28;20466;-84
2021/08/12 09:00:47;;;;;;;0.60;0.60;;;39.20;54.80;;;;;;5093714;28;20449;-85
2021/08/12 09:03:14;;;;;;;0.80;0.80;;;38.20;53.00;;;;;;5095438;28;20967;-85
2021/08/12 09:05:41;;;;;;;0.40;0.30;;;36.60;54.60;;;;;;5096001;28;20457;-84
2021/08/12 09:08:07;;;;;;;2.73;0.70;;;36.00;55.80;;;;;;5096064;28;20459;-85
2021/08/12 09:10:37;;;;;;;4.00;1.40;;;36.60;56.20;;;;;;5096982;28;20449;-86
2021/08/12 09:13:04;;;;;;;1.50;1.40;;;36.20;55.00;;;;;;5096432;28;20453;-85
2021/08/12 09:15:41;;;;;;;2.90;1.73;;;36.00;56.30;;;;;;5095379;28;20442;-85
2021/08/12 09:18:20;;;;;;;0.50;0.50;;;36.00;57.90;;;;;;5096008;28;20466;-86
2021/08/12 09:20:49;;;;;;;0.40;0.30;;;36.10;55.30;;;;;;5095928;28;20430;-87
2021/08/12 09:23:20;;;;;;;0.43;0.37;;;36.10;56.70;;;;;;5096555;28;20828;-86
2021/08/12 09:25:48;;;;;;;0.40;0.30;;;36.50;55.60;;;;;;5095419;28;20450;-86
2021/08/12 09:28:18;;;;;;;0.40;0.30;;;37.00;56.80;;;;;;5096668;28;20534;-85
2021/08/12 09:31:03;;;;;;;0.80;0.70;;;37.10;55.40;;;;;;5095800;28;20444;-85
2021/08/12 09:33:31;;;;;;;0.40;0.30;;;37.40;54.30;;;;;;5096776;28;20426;-85
2021/08/12 09:35:58;;;;;;;0.80;0.40;;;37.20;54.50;;;;;;5095838;28;20447;-86
2021/08/12 09:38:26;;;;;;;0.40;0.30;;;37.20;54.90;;;;;;5096029;28;20468;-86
2021/08/12 09:40:54;;;;;;;0.40;0.30;;;37.90;55.10;;;;;;5094541;28;20901;-86
2021/08/12 09:43:22;;;;;;;0.40;0.30;;;37.70;54.70;;;;;;5095066;28;20453;-86
2021/08/12 09:45:50;;;;;;;0.40;0.30;;;37.40;55.70;;;;;;5095723;28;20807;-86
2021/08/12 09:48:19;;;;;;;1.03;1.03;;;37.80;56.60;;;;;;5094954;28;20449;-84
2021/08/12 09:50:47;;;;;;;0.40;0.30;;;38.50;53.80;;;;;;5094141;28;20447;-85
2021/08/12 09:53:18;;;;;;;0.40;0.30;;;38.20;53.70;;;;;;5100406;28;20450;-86
2021/08/12 09:55:46;;;;;;;0.40;0.30;;;38.30;54.30;;;;;;5100768;28;20438;-85
2021/08/12 09:58:14;;;;;;;0.40;0.30;;;38.60;53.60;;;;;;5080977;28;20976;-85
2021/08/12 10:00:44;;;;;;;0.40;0.30;;;38.60;54.20;;;;;;5099546;28;20437;-86
2021/08/12 10:03:26;;;;;;;0.40;0.30;;;39.30;53.10;;;;;;5098494;28;20446;-87
2021/08/12 10:05:55;;;;;;;0.40;0.40;;;39.70;50.70;;;;;;5100575;28;20546;-86
2021/08/12 10:08:29;;;;;;;0.40;0.30;;;39.10;49.50;;;;;;5101551;28;20469;-87
2021/08/12 10:10:57;;;;;;;0.40;0.40;;;38.40;51.50;;;;;;5099000;28;20531;-86
2021/08/12 10:13:24;;;;;;;0.40;0.30;;;38.00;51.00;;;;;;5099453;28;20443;-86
2021/08/12 10:15:53;;;;;;;0.40;0.30;;;38.20;52.20;;;;;;5099373;28;20446;-84
2021/08/12 10:18:20;;;;;;;0.40;0.30;;;38.80;53.20;;;;;;5098238;28;20474;-85
2021/08/12 10:20:49;;;;;;;0.40;0.30;;;38.50;50.30;;;;;;5099190;28;20447;-85
2021/08/12 10:23:19;;;;;;;0.40;0.30;;;38.70;51.90;;;;;;5099370;28;20439;-84
2021/08/12 10:25:51;;;;;;;0.40;0.30;;;39.10;51.40;;;;;;5098038;28;20476;-86
2021/08/12 10:28:21;;;;;;;1.03;1.03;;;39.70;51.60;;;;;;5098175;28;20465;-86
2021/08/12 10:30:48;;;;;;;0.73;0.50;;;39.40;47.90;;;;;;5098860;28;20425;-87
2021/08/12 10:33:15;;;;;;;0.40;0.30;;;38.30;48.90;;;;;;5099841;28;20448;-84
2021/08/12 10:35:42;;;;;;;0.40;0.30;;;38.30;50.50;;;;;;5097634;28;20440;-83
2021/08/12 10:38:10;;;;;;;0.60;0.60;;;38.80;50.30;;;;;;5100177;28;20474;-87
2021/08/12 10:40:39;;;;;;;0.50;0.47;;;39.00;50.10;;;;;;5098479;28;20449;-87
2021/08/12 10:43:09;;;;;;;1.00;0.77;;;37.70;49.90;;;;;;5098976;28;20628;-83
2021/08/12 10:45:36;;;;;;;0.40;0.40;;;37.40;52.70;;;;;;5098162;28;20466;-86
2021/08/12 10:48:03;;;;;;;0.40;0.30;;;37.90;48.30;;;;;;5099282;28;20460;-86
2021/08/12 10:50:38;;;;;;;2.43;0.80;;;37.30;51.10;;;;;;5098492;28;20776;-85
2021/08/12 10:53:20;;;;;;;0.40;0.30;;;37.60;48.40;;;;;;5098430;28;20425;-81
2021/08/12 10:55:59;;;;;;;0.80;0.77;;;38.00;49.40;;;;;;5097936;28;20442;-85
2021/08/12 10:58:42;;;;;;;0.40;0.30;;;38.00;48.80;;;;;;5098208;28;20462;-84
2021/08/12 11:01:10;;;;;;;0.40;0.40;;;38.60;47.90;;;;;;5098440;28;20450;-86
2021/08/12 11:03:46;;;;;;;0.40;0.30;;;37.60;47.00;;;;;;5097926;28;20445;-86
2021/08/12 11:06:16;;;;;;;0.73;0.60;;;36.60;49.10;;;;;;5098056;28;20437;-85
2021/08/12 11:09:02;;;;;;;0.40;0.30;;;37.10;51.00;;;;;;5098596;28;20462;-84
2021/08/12 11:11:57;;;;;;;0.63;0.60;;;37.30;49.70;;;;;;5098741;28;20457;-86
2021/08/12 11:14:58;;;;;;;0.40;0.33;;;37.70;51.80;;;;;;5099603;28;20512;-87
2021/08/12 11:17:47;;;;;;;0.60;0.60;;;37.60;50.50;;;;;;5015696;28;20634;-85
2021/08/12 11:20:31;;;;;;;0.60;0.60;;;36.70;48.40;;;;;;5014862;28;20450;-86
2021/08/12 11:22:58;;;;;;;0.50;0.30;;;34.30;51.00;;;;;;5014927;28;20595;-87
2021/08/12 11:25:56;;;;;;;0.47;0.30;;;33.90;54.00;;;;;;5014893;28;20481;-87
2021/08/12 11:28:55;;;;;;;0.67;0.67;;;34.20;51.80;;;;;;5014669;28;20465;-87
2021/08/12 11:31:53;;;;;;;0.50;0.30;;;33.70;52.30;;;;;;5016672;28;20436;-86
2021/08/12 11:34:25;;;;;;;0.50;0.30;;;33.60;54.80;;;;;;5015167;28;20480;-84
2021/08/12 11:37:12;;;;;;;0.50;0.30;;;33.80;56.40;;;;;;5016116;28;20431;-86
2021/08/12 11:39:55;;;;;;;0.40;0.30;;;33.80;55.20;;;;;;5015377;28;20833;-86
2021/08/12 11:42:27;;;;;;;1.63;0.77;;;33.80;55.50;;;;;;5015194;28;20571;-86
2021/08/12 11:44:56;;;;;;;1.43;0.70;;;33.40;55.00;;;;;;5015590;28;20502;-86
2021/08/12 11:47:23;;;;;;;0.50;0.30;;;33.60;54.40;;;;;;5022698;28;20466;-86
2021/08/12 11:49:51;;;;;;;0.50;0.30;;;33.40;55.10;;;;;;5099058;28;20439;-88
2021/08/12 11:52:24;;;;;;;0.50;0.40;;;33.50;52.90;;;;;;5098727;28;20443;-86
2021/08/12 11:54:58;;;;;;;0.40;0.30;;;33.90;54.30;;;;;;5099743;28;20436;-86
2021/08/12 11:57:39;;;;;;;0.50;0.40;;;33.60;52.10;;;;;;5098274;28;20482;-86
2021/08/12 12:00:08;;;;;;;0.50;0.40;;;33.30;51.90;;;;;;5097353;28;20442;-87
2021/08/12 12:02:35;;;;;;;0.50;0.30;;;32.80;51.00;;;;;;5097752;28;20451;-84
2021/08/12 12:05:02;;;;;;;3.23;0.50;;;32.60;53.80;;;;;;5097300;28;20474;-83
2021/08/12 12:07:43;;;;;;;2.97;1.17;;;31.60;51.90;;;;;;5098125;28;20460;-84
2021/08/12 12:10:10;;;;;;;0.50;0.30;;;31.30;53.50;;;;;;5098906;28;20445;-82
2021/08/12 12:12:37;;;;;;;0.50;0.30;;;31.70;53.80;;;;;;5096777;28;20798;-84
2021/08/12 12:15:04;;;;;;;0.50;0.40;;;32.10;53.10;;;;;;5100674;28;20501;-84
2021/08/12 12:17:33;;;;;;;0.50;0.30;;;32.00;53.10;;;;;;5114271;28;20473;-85
2021/08/12 12:20:11;;;;;;;0.50;0.30;;;32.10;54.50;;;;;;5101778;28;20536;-85
2021/08/12 12:22:39;;;;;;;0.50;0.40;;;32.40;54.60;;;;;;5099273;28;20424;-85
2021/08/12 12:25:09;;;;;;;0.50;0.40;;;32.00;55.00;;;;;;5101478;28;21000;-86
2021/08/12 12:27:36;;;;;;;0.50;0.30;;;31.50;56.30;;;;;;5100182;28;20499;-85
2021/08/12 12:30:09;;;;;;;0.50;0.30;;;31.50;57.30;;;;;;5099810;28;20429;-86
2021/08/12 12:32:36;;;;;;;0.50;0.30;;;31.60;58.20;;;;;;5100254;28;20424;-86
2021/08/12 12:35:05;;;;;;;0.50;0.30;;;31.90;59.20;;;;;;5099834;28;20440;-85
2021/08/12 12:37:33;;;;;;;0.50;0.30;;;32.10;56.50;;;;;;5099836;28;20471;-85
2021/08/12 12:40:00;;;;;;;1.03;1.03;;;32.00;58.00;;;;;;5099839;28;20437;-87
2021/08/12 12:42:31;;;;;;;0.50;0.30;;;31.90;56.10;;;;;;5099060;28;20447;-87
2021/08/12 12:45:03;;;;;;;0.50;0.30;;;31.40;57.60;;;;;;5099247;28;20490;-87
2021/08/12 12:47:31;;;;;;;0.50;0.37;;;30.90;59.10;;;;;;5099905;28;20450;-88
2021/08/12 12:50:10;;;;;;;0.50;0.30;;;30.70;59.90;;;;;;5098411;28;20448;-87
2021/08/12 12:52:51;;;;;;;0.50;0.40;;;30.30;61.00;;;;;;5098304;28;20435;-86
2021/08/12 12:55:18;;;;;;;0.80;0.70;;;30.00;62.70;;;;;;5099729;28;20440;-87
2021/08/12 12:57:47;;;;;;;0.50;0.30;;;29.70;61.50;;;;;;5098204;28;20999;-86